Time;durP1;ratioP1;P1;durP2;ratioP2;P2;SDS_P1;SDS_P2;PMS_P1;PMS_P2;Temp;Humidity;BMP_temperature;BMP_pressure;BME280_temperature;BME280_humidity;BME280_pressure;Samples;Min_cycle;Max_cycle;Signal;HPM_P1;HPM_P2
2022/09/05 00:00:21;;;;;;;3.63;2.53;;;16.00;99.90;;;;;;4985650;28;20460;-83
2022/09/05 00:02:59;;;;;;;2.70;2.50;;;15.70;99.90;;;;;;4967041;28;20473;-84
2022/09/05 00:05:49;;;;;;;3.93;3.00;;;15.70;99.90;;;;;;4991037;28;20456;-83
2022/09/05 00:08:21;;;;;;;2.80;2.33;;;15.60;99.90;;;;;;4987975;28;20471;-84
2022/09/05 00:11:00;;;;;;;5.37;3.07;;;15.60;99.90;;;;;;5018666;28;20529;-83
2022/09/05 00:13:32;;;;;;;3.73;2.57;;;15.60;99.90;;;;;;5001432;28;20463;-83
2022/09/05 00:16:32;;;;;;;7.20;3.03;;;15.60;99.90;;;;;;5001617;28;20441;-85
2022/09/05 00:19:22;;;;;;;8.00;2.57;;;15.60;99.90;;;;;;5003115;28;20471;-86
2022/09/05 00:22:15;;;;;;;4.00;3.37;;;15.60;99.90;;;;;;4999848;28;20835;-85
2022/09/05 00:25:11;;;;;;;3.90;3.40;;;15.50;99.90;;;;;;4981676;28;20503;-86
2022/09/05 00:27:49;;;;;;;3.53;3.00;;;15.50;99.90;;;;;;4996055;28;20538;-83
2022/09/05 00:30:17;;;;;;;9.50;3.37;;;15.50;99.90;;;;;;4981969;28;20457;-85
2022/09/05 00:33:02;;;;;;;4.07;3.20;;;16.20;99.90;;;;;;5006671;28;20422;-86
2022/09/05 00:35:53;;;;;;;3.90;3.07;;;15.50;99.90;;;;;;4998455;28;20464;-83
2022/09/05 00:38:25;;;;;;;3.40;3.03;;;15.60;99.90;;;;;;4989898;28;20849;-85
2022/09/05 00:41:01;;;;;;;4.30;3.90;;;15.50;99.90;;;;;;4998467;28;20503;-84
2022/09/05 00:43:31;;;;;;;4.77;2.73;;;15.50;99.90;;;;;;4985154;28;20432;-86
2022/09/05 00:46:03;;;;;;;5.70;3.00;;;15.50;99.90;;;;;;4995719;28;20508;-85
2022/09/05 00:49:01;;;;;;;3.83;2.93;;;15.50;99.90;;;;;;4977751;28;20792;-84
2022/09/05 00:51:32;;;;;;;7.80;3.93;;;15.50;99.90;;;;;;5001310;28;20429;-89
2022/09/05 00:54:01;;;;;;;3.40;3.10;;;15.40;99.90;;;;;;4998494;28;20433;-83
2022/09/05 00:56:52;;;;;;;6.40;4.50;;;15.40;99.90;;;;;;4998942;28;20534;-83
2022/09/05 00:59:52;;;;;;;5.77;3.80;;;15.30;99.90;;;;;;4992114;28;20684;-85
2022/09/05 01:02:36;;;;;;;4.23;3.27;;;15.30;99.90;;;;;;4993532;28;20531;-83
2022/09/05 01:05:30;;;;;;;5.10;4.23;;;15.30;99.90;;;;;;4996242;28;20469;-82
2022/09/05 01:08:35;;;;;;;6.30;3.80;;;15.20;99.90;;;;;;4987145;28;20552;-84
2022/09/05 01:11:34;;;;;;;4.77;3.63;;;15.20;99.90;;;;;;4977204;28;20532;-83
2022/09/05 01:14:38;;;;;;;4.20;3.10;;;15.20;99.90;;;;;;5000751;28;20433;-87
2022/09/05 01:17:41;;;;;;;7.13;3.50;;;15.10;99.90;;;;;;4984193;28;20448;-84
2022/09/05 01:20:43;;;;;;;9.10;4.20;;;15.00;99.90;;;;;;4969153;28;20457;-83
2022/09/05 01:23:28;;;;;;;4.67;3.23;;;15.00;99.90;;;;;;4996157;28;20967;-82
2022/09/05 01:26:31;;;;;;;4.53;3.53;;;15.00;99.90;;;;;;4991876;28;20470;-85
2022/09/05 01:29:03;;;;;;;3.70;3.30;;;15.00;99.90;;;;;;4996590;28;20469;-83
2022/09/05 01:31:53;;;;;;;9.83;5.00;;;15.00;99.90;;;;;;4982092;28;20442;-84
2022/09/05 01:34:32;;;;;;;4.47;4.07;;;15.00;99.90;;;;;;4996660;28;20441;-82
2022/09/05 01:37:25;;;;;;;4.70;4.20;;;14.90;99.90;;;;;;4980643;28;21062;-85
2022/09/05 01:40:02;;;;;;;6.63;5.30;;;14.80;99.90;;;;;;5003873;28;20461;-83
2022/09/05 01:42:39;;;;;;;6.43;5.30;;;14.80;99.90;;;;;;5010908;28;20445;-86
2022/09/05 01:45:45;;;;;;;6.30;5.33;;;14.70;99.90;;;;;;4999697;28;20230;-86
2022/09/05 01:48:39;;;;;;;9.37;5.40;;;14.60;99.90;;;;;;4973144;28;21252;-87
2022/09/05 01:51:26;;;;;;;4.23;3.73;;;14.60;99.90;;;;;;4997607;28;20438;-85
2022/09/05 01:54:04;;;;;;;6.20;4.10;;;14.60;99.90;;;;;;4994989;28;21068;-85
2022/09/05 01:56:41;;;;;;;4.40;4.00;;;14.60;99.90;;;;;;4976508;28;20973;-84
2022/09/05 01:59:18;;;;;;;4.43;3.93;;;14.50;99.90;;;;;;4977955;28;20477;-86
2022/09/05 02:01:54;;;;;;;8.23;5.40;;;14.50;99.90;;;;;;4997471;28;20468;-82
2022/09/05 02:05:11;;;;;;;4.78;4.32;;;14.40;99.90;;;;;;4996073;28;20480;-86
2022/09/05 02:07:57;;;;;;;7.30;5.10;;;14.30;99.90;;;;;;4916265;29;20642;-84
2022/09/05 02:10:33;;;;;;;7.60;6.10;;;14.30;99.90;;;;;;4921235;29;20507;-86
2022/09/05 02:13:28;;;;;;;8.03;5.50;;;14.30;99.90;;;;;;4963809;28;20204;-83
2022/09/05 02:16:18;;;;;;;11.05;5.47;;;14.30;99.90;;;;;;5002698;28;20444;-83
2022/09/05 02:18:51;;;;;;;6.50;5.15;;;14.20;99.90;;;;;;4990269;28;20710;-85
2022/09/05 02:21:37;;;;;;;7.50;5.28;;;14.20;99.90;;;;;;4998205;28;20214;-85
2022/09/05 02:24:29;;;;;;;7.95;5.40;;;14.10;99.90;;;;;;5000056;28;20680;-82
2022/09/05 02:27:18;;;;;;;9.15;5.10;;;14.10;99.90;;;;;;5003038;28;20301;-83
2022/09/05 02:30:08;;;;;;;6.30;5.30;;;14.00;99.90;;;;;;5000138;28;20272;-82
2022/09/05 02:32:55;;;;;;;7.00;4.35;;;14.00;99.90;;;;;;5006719;28;20453;-85
2022/09/05 02:35:32;;;;;;;9.00;5.00;;;13.90;99.90;;;;;;5006426;28;20190;-84
2022/09/05 02:38:22;;;;;;;5.57;4.97;;;14.00;99.90;;;;;;4979622;28;20631;-83
2022/09/05 02:40:56;;;;;;;5.60;4.32;;;14.00;99.90;;;;;;4988046;28;20449;-87
2022/09/05 02:43:34;;;;;;;7.85;5.07;;;14.10;99.90;;;;;;5000081;28;20186;-82
2022/09/05 02:46:23;;;;;;;7.50;4.70;;;14.10;99.90;;;;;;5002759;28;20194;-82
2022/09/05 02:49:08;;;;;;;7.73;4.37;;;13.90;99.90;;;;;;4995412;28;21673;-87
2022/09/05 02:51:55;;;;;;;6.70;4.63;;;13.80;99.90;;;;;;4996711;28;20483;-84
2022/09/05 02:54:28;;;;;;;7.13;5.10;;;13.80;99.90;;;;;;5004204;28;20187;-86
2022/09/05 02:57:25;;;;;;;8.95;5.45;;;13.80;99.90;;;;;;4997005;28;20183;-84
2022/09/05 03:00:12;;;;;;;6.65;4.70;;;13.80;99.90;;;;;;4999189;28;20222;-85
2022/09/05 03:03:13;;;;;;;7.10;5.70;;;13.80;99.90;;;;;;4996035;28;20202;-86
2022/09/05 03:05:59;;;;;;;6.45;5.25;;;13.80;99.90;;;;;;4982973;28;20225;-81
2022/09/05 03:08:43;;;;;;;11.25;6.18;;;13.80;99.90;;;;;;4988290;28;20238;-83
2022/09/05 03:11:38;;;;;;;7.47;6.50;;;13.80;99.90;;;;;;5001470;28;21068;-86
2022/09/05 03:14:38;;;;;;;6.20;5.55;;;13.80;99.90;;;;;;5001583;28;20194;-86
2022/09/05 03:17:48;;;;;;;13.85;6.50;;;13.80;99.90;;;;;;5003756;28;20310;-84
2022/09/05 03:20:32;;;;;;;8.95;6.82;;;13.80;99.90;;;;;;4975812;28;20203;-85
2022/09/05 03:23:42;;;;;;;7.35;5.55;;;13.70;99.90;;;;;;4991741;28;20186;-84
2022/09/05 03:26:32;;;;;;;8.80;5.25;;;13.70;99.90;;;;;;4994552;28;20204;-85
2022/09/05 03:29:10;;;;;;;6.40;5.70;;;13.70;99.90;;;;;;4986278;28;20281;-83
2022/09/05 03:31:53;;;;;;;8.63;6.57;;;13.70;99.90;;;;;;4988336;28;20265;-85
2022/09/05 03:35:03;;;;;;;8.43;6.32;;;13.70;99.90;;;;;;4992639;28;20183;-84
2022/09/05 03:37:57;;;;;;;10.25;7.50;;;13.70;99.90;;;;;;4982443;28;20506;-84
2022/09/05 03:40:49;;;;;;;10.40;7.00;;;13.70;99.90;;;;;;4982156;28;20194;-82
2022/09/05 03:43:24;;;;;;;8.90;6.70;;;13.70;99.90;;;;;;4988639;28;20202;-85
2022/09/05 03:45:58;;;;;;;7.78;6.75;;;13.60;99.90;;;;;;4985356;28;20991;-82
2022/09/05 03:48:47;;;;;;;14.35;7.80;;;13.50;99.90;;;;;;4988528;28;20183;-84
2022/09/05 03:51:46;;;;;;;10.57;6.70;;;13.50;99.90;;;;;;4971448;28;21248;-84
2022/09/05 03:54:26;;;;;;;8.07;5.72;;;13.60;99.90;;;;;;4979001;28;20195;-85
2022/09/05 03:57:30;;;;;;;8.10;6.82;;;13.50;99.90;;;;;;4986648;28;21413;-82
2022/09/05 04:00:05;;;;;;;11.98;7.00;;;13.50;99.90;;;;;;4980988;28;20217;-83
2022/09/05 04:02:51;;;;;;;8.65;6.38;;;13.40;99.90;;;;;;4980052;28;20273;-83
2022/09/05 04:05:22;;;;;;;9.35;7.35;;;13.40;99.90;;;;;;4978203;28;20520;-88
2022/09/05 04:07:54;;;;;;;8.50;6.00;;;13.40;99.90;;;;;;4964348;28;20197;-85
2022/09/05 04:10:48;;;;;;;10.18;7.97;;;13.30;99.90;;;;;;4977258;28;20315;-83
2022/09/05 04:13:22;;;;;;;11.68;7.20;;;13.30;99.90;;;;;;4964382;28;21058;-85
2022/09/05 04:16:01;;;;;;;10.00;7.38;;;13.30;99.90;;;;;;4969778;28;20182;-84
2022/09/05 04:18:37;;;;;;;13.43;7.95;;;13.20;99.90;;;;;;4972381;28;20190;-84
2022/09/05 04:21:30;;;;;;;9.80;6.80;;;13.20;99.90;;;;;;4975042;28;20205;-83
2022/09/05 04:24:22;;;;;;;9.02;7.00;;;13.30;99.90;;;;;;4982316;28;20186;-86
2022/09/05 04:27:01;;;;;;;9.07;6.47;;;13.20;99.90;;;;;;4975425;28;20709;-82
2022/09/05 04:29:43;;;;;;;8.90;7.10;;;13.20;99.90;;;;;;4958415;28;20300;-87
2022/09/05 04:32:21;;;;;;;7.78;6.25;;;13.10;99.90;;;;;;4984715;28;20187;-85
2022/09/05 04:34:59;;;;;;;8.80;7.10;;;13.20;99.90;;;;;;4978668;28;20681;-84
2022/09/05 04:37:58;;;;;;;8.35;6.25;;;13.20;99.90;;;;;;4978725;28;20209;-82
2022/09/05 04:40:38;;;;;;;12.60;7.32;;;13.30;99.90;;;;;;4978916;28;20800;-84
2022/09/05 04:43:19;;;;;;;8.93;6.72;;;13.20;99.90;;;;;;4971240;28;20197;-84
2022/09/05 04:45:52;;;;;;;10.60;7.22;;;13.30;99.90;;;;;;4973281;28;20260;-82
2022/09/05 04:48:23;;;;;;;8.38;6.88;;;13.50;99.90;;;;;;4971448;28;20246;-84
2022/09/05 04:51:01;;;;;;;7.72;6.65;;;13.50;99.90;;;;;;4957407;28;21168;-82
2022/09/05 04:53:48;;;;;;;7.25;6.18;;;13.60;99.90;;;;;;4962124;28;20182;-83
2022/09/05 04:56:20;;;;;;;8.13;6.18;;;13.70;99.90;;;;;;4958361;28;20290;-82
2022/09/05 04:59:00;;;;;;;7.10;5.55;;;13.80;99.90;;;;;;4976940;28;21509;-86
2022/09/05 05:03:54;;;;;;;9.23;6.83;;;14.00;99.90;;;;;;4959086;28;20714;-88
2022/09/05 05:06:32;;;;;;;10.40;7.27;;;14.00;99.90;;;;;;4962131;28;20465;-86
2022/09/05 05:08:57;;;;;;;9.47;6.70;;;14.30;99.90;;;;;;4957353;28;20438;-86
2022/09/05 05:11:55;;;;;;;6.40;5.70;;;14.90;99.90;;;;;;4958820;28;20516;-87
2022/09/05 05:14:30;;;;;;;6.10;5.50;;;16.00;99.90;;;;;;4961544;28;20570;-87
2022/09/05 05:17:09;;;;;;;9.27;4.97;;;17.60;99.90;;;;;;4948011;28;20477;-89
2022/09/05 05:19:45;;;;;;;8.70;4.07;;;19.60;99.90;;;;;;4965163;28;20838;-90
2022/09/05 05:22:16;;;;;;;5.13;4.20;;;20.40;99.90;;;;;;4961450;28;20438;-85
2022/09/05 05:24:46;;;;;;;10.87;4.93;;;23.70;99.90;;;;;;4955360;28;20474;-86
2022/09/05 05:27:14;;;;;;;3.77;3.30;;;23.70;99.90;;;;;;4936242;28;20441;-89
2022/09/05 05:29:47;;;;;;;4.40;3.90;;;26.20;99.90;;;;;;4929377;28;20571;-88
2022/09/05 05:32:35;;;;;;;6.03;4.30;;;26.20;99.90;;;;;;4915415;28;20442;-87
2022/09/05 05:35:12;;;;;;;5.53;4.80;;;26.00;99.90;;;;;;4936949;28;21328;-89
2022/09/05 05:37:47;;;;;;;6.50;5.00;;;25.60;99.90;;;;;;4923541;28;21141;-86
2022/09/05 05:40:15;;;;;;;4.73;4.23;;;25.50;99.90;;;;;;4926350;28;20465;-87
2022/09/05 05:42:42;;;;;;;6.50;3.67;;;24.90;99.90;;;;;;4938256;28;20449;-87
2022/09/05 05:45:27;;;;;;;4.87;4.17;;;24.40;99.90;;;;;;4950062;28;20503;-88
2022/09/05 05:48:05;;;;;;;4.50;4.03;;;24.30;99.90;;;;;;4955581;28;20545;-89
2022/09/05 05:50:42;;;;;;;6.00;4.73;;;24.50;99.90;;;;;;4959508;28;20466;-88
2022/09/05 05:53:26;;;;;;;6.10;4.83;;;24.30;99.90;;;;;;4929670;28;20445;-89
2022/09/05 05:56:09;;;;;;;8.80;4.77;;;23.20;99.90;;;;;;4950745;28;20445;-87
2022/09/05 05:59:12;;;;;;;6.40;4.93;;;21.80;99.90;;;;;;4974750;28;20442;-86
2022/09/05 06:01:57;;;;;;;6.67;5.80;;;21.50;99.90;;;;;;4949334;28;20468;-86
2022/09/05 06:04:44;;;;;;;8.20;5.60;;;22.30;99.90;;;;;;4956210;28;20460;-86
2022/09/05 06:07:29;;;;;;;8.30;5.70;;;22.90;99.90;;;;;;4947333;28;20501;-87
2022/09/05 06:10:13;;;;;;;9.07;5.47;;;23.40;99.90;;;;;;4929224;28;20458;-89
2022/09/05 06:13:33;;;;;;;6.20;5.60;;;25.90;99.90;;;;;;4964411;28;20449;-88
2022/09/05 06:16:30;;;;;;;7.00;6.30;;;26.20;99.90;;;;;;4867994;29;20827;-86
2022/09/05 06:19:02;;;;;;;5.67;4.87;;;27.00;99.90;;;;;;4870858;29;20442;-88
2022/09/05 06:22:06;;;;;;;6.17;5.43;;;28.00;99.90;;;;;;4919945;28;20480;-88
2022/09/05 06:24:58;;;;;;;9.67;5.57;;;28.00;99.90;;;;;;4975711;28;20951;-86
2022/09/05 06:27:51;;;;;;;5.13;4.63;;;29.20;99.70;;;;;;4960361;28;20441;-87
2022/09/05 06:30:19;;;;;;;9.23;5.20;;;30.30;97.30;;;;;;4962596;28;20457;-88
2022/09/05 06:33:24;;;;;;;6.10;5.00;;;31.00;94.90;;;;;;4961743;28;21737;-86
2022/09/05 06:36:18;;;;;;;11.50;6.93;;;33.10;85.10;;;;;;4941994;28;20438;-88
2022/09/05 06:38:56;;;;;;;12.87;5.90;;;33.50;83.40;;;;;;4956708;28;20528;-88
2022/09/05 06:41:45;;;;;;;14.07;7.83;;;34.50;76.60;;;;;;4955776;28;20470;-88
2022/09/05 06:44:42;;;;;;;11.20;7.50;;;33.20;74.60;;;;;;4937577;28;20438;-88
2022/09/05 06:47:17;;;;;;;32.60;15.53;;;33.10;73.20;;;;;;4940804;28;20498;-89
2022/09/05 06:49:43;;;;;;;5.37;4.90;;;;;;;;;;4954637;28;20449;-88
2022/09/05 06:52:49;;;;;;;6.33;5.40;;;34.30;71.80;;;;;;4957631;28;20431;-88
2022/09/05 06:55:15;;;;;;;6.40;5.80;;;;;;;;;;4955988;28;21545;-89
2022/09/05 06:57:43;;;;;;;14.20;5.70;;;;;;;;;;4934763;28;21035;-89
2022/09/05 07:00:21;;;;;;;5.70;5.20;;;37.80;61.40;;;;;;4954686;28;21318;-89
2022/09/05 07:03:26;;;;;;;12.23;5.83;;;37.40;57.20;;;;;;4956412;28;20595;-86
2022/09/05 07:06:12;;;;;;;6.87;6.07;;;36.70;59.00;;;;;;4962688;28;20479;-88
2022/09/05 07:08:38;;;;;;;8.40;6.17;;;;;;;;;;4962516;28;21487;-88
2022/09/05 07:11:19;;;;;;;6.50;6.10;;;36.50;58.10;;;;;;4961377;28;20460;-88
2022/09/05 07:14:04;;;;;;;9.43;6.57;;;36.10;57.70;;;;;;4958332;28;20341;-89
2022/09/05 07:16:41;;;;;;;7.07;6.37;;;35.70;58.60;;;;;;4959370;28;20538;-88
2022/09/05 07:19:42;;;;;;;6.90;6.33;;;35.80;58.60;;;;;;4941888;28;20572;-89
2022/09/05 07:22:23;;;;;;;11.47;5.53;;;35.40;59.80;;;;;;4961092;28;20956;-86
2022/09/05 07:24:52;;;;;;;6.50;5.90;;;35.00;60.60;;;;;;4958356;28;20841;-88
2022/09/05 07:27:38;;;;;;;8.60;6.60;;;35.00;60.00;;;;;;4938047;28;20456;-88
2022/09/05 07:30:05;;;;;;;6.13;5.50;;;35.90;59.90;;;;;;4958743;28;20485;-89
2022/09/05 07:32:39;;;;;;;6.17;5.20;;;36.70;57.70;;;;;;4962577;28;20444;-88
2022/09/05 07:35:08;;;;;;;7.87;6.13;;;37.70;57.20;;;;;;4967756;28;20567;-89
2022/09/05 07:37:39;;;;;;;15.07;14.03;;;37.80;53.30;;;;;;4960204;28;21893;-87
2022/09/05 07:40:12;;;;;;;18.70;17.57;;;38.00;54.00;;;;;;4955332;28;20472;-89
2022/09/05 07:42:50;;;;;;;12.83;11.53;;;37.80;52.90;;;;;;4942865;28;20438;-89
2022/09/05 07:45:28;;;;;;;8.63;8.03;;;37.50;52.80;;;;;;4941253;28;20456;-88
2022/09/05 07:48:20;;;;;;;11.23;10.63;;;37.20;52.60;;;;;;4965192;28;20514;-87
2022/09/05 07:50:55;;;;;;;12.20;11.50;;;37.50;51.60;;;;;;4970478;28;20586;-88
2022/09/05 07:53:23;;;;;;;16.93;15.73;;;37.30;51.20;;;;;;4949314;28;20439;-88
2022/09/05 07:55:56;;;;;;;22.33;21.33;;;38.80;50.80;;;;;;4970230;28;21304;-86
2022/09/05 07:58:33;;;;;;;27.33;25.27;;;39.20;48.90;;;;;;4960697;28;20527;-89
2022/09/05 08:00:58;;;;;;;26.10;24.00;;;;;;;;;;4939314;28;20509;-89
2022/09/05 08:03:27;;;;;;;26.23;24.13;;;37.70;48.10;;;;;;4959143;28;20532;-87
2022/09/05 08:05:58;;;;;;;19.90;18.80;;;37.20;49.70;;;;;;4957757;28;20479;-89
2022/09/05 08:08:29;;;;;;;13.47;12.67;;;37.60;49.80;;;;;;4958785;28;20455;-88
2022/09/05 08:10:59;;;;;;;11.93;11.33;;;38.10;49.50;;;;;;4967178;28;20555;-87
2022/09/05 08:13:52;;;;;;;12.30;11.70;;;38.20;47.20;;;;;;4959337;28;20697;-87
2022/09/05 08:16:21;;;;;;;12.10;11.40;;;36.40;48.90;;;;;;4976080;28;20441;-87
2022/09/05 08:18:55;;;;;;;13.33;12.63;;;37.00;49.50;;;;;;4949401;28;20438;-88
2022/09/05 08:21:22;;;;;;;10.40;9.80;;;;;;;;;;4971730;28;20452;-89
2022/09/05 08:24:10;;;;;;;11.13;10.53;;;36.80;49.70;;;;;;4971858;28;20502;-89
2022/09/05 08:26:48;;;;;;;11.23;10.40;;;38.10;48.70;;;;;;4974213;28;20485;-88
2022/09/05 08:29:37;;;;;;;13.90;13.03;;;38.10;47.50;;;;;;4969449;28;20453;-86
2022/09/05 08:32:10;;;;;;;9.60;9.17;;;35.60;48.70;;;;;;4967065;28;20440;-88
2022/09/05 08:34:53;;;;;;;9.17;8.67;;;35.30;50.40;;;;;;4972895;28;20550;-88
2022/09/05 08:37:25;;;;;;;9.37;8.87;;;36.50;50.50;;;;;;4968001;28;20474;-87
2022/09/05 08:39:53;;;;;;;9.50;9.10;;;37.30;47.10;;;;;;4949285;28;20464;-85
2022/09/05 08:42:31;;;;;;;12.53;11.93;;;37.50;47.80;;;;;;4968340;28;20435;-86
2022/09/05 08:45:05;;;;;;;12.47;11.83;;;38.90;45.40;;;;;;4954210;28;20511;-86
2022/09/05 08:47:44;;;;;;;11.43;10.93;;;39.90;43.90;;;;;;4962320;28;21083;-85
2022/09/05 08:50:25;;;;;;;14.70;14.10;;;39.40;45.80;;;;;;4946399;28;20562;-86
2022/09/05 08:53:24;;;;;;;16.30;15.50;;;36.90;45.20;;;;;;4977361;28;20437;-86
2022/09/05 08:56:13;;;;;;;13.03;12.37;;;36.30;46.00;;;;;;4975074;28;20459;-85
2022/09/05 08:58:56;;;;;;;10.07;9.57;;;34.80;48.90;;;;;;4968923;28;20449;-87
2022/09/05 09:01:25;;;;;;;11.10;10.50;;;33.90;50.60;;;;;;4954724;28;20569;-87
2022/09/05 09:04:09;;;;;;;7.63;7.23;;;32.40;52.10;;;;;;4934128;28;20504;-86
2022/09/05 09:07:00;;;;;;;7.03;6.53;;;32.20;53.90;;;;;;4962019;28;21054;-86
2022/09/05 09:09:43;;;;;;;6.57;6.20;;;32.80;57.20;;;;;;4977381;28;20452;-86
2022/09/05 09:12:23;;;;;;;6.97;6.37;;;32.80;57.70;;;;;;4976824;28;20662;-87
2022/09/05 09:15:16;;;;;;;7.30;6.70;;;34.00;54.90;;;;;;4979446;28;20566;-87
2022/09/05 09:17:48;;;;;;;6.67;6.27;;;33.00;54.80;;;;;;4975105;28;20432;-87
2022/09/05 09:20:45;;;;;;;6.70;6.20;;;32.70;56.70;;;;;;4966924;28;20458;-87
2022/09/05 09:23:47;;;;;;;8.03;6.40;;;33.80;55.40;;;;;;4966715;28;20443;-86
2022/09/05 09:26:15;;;;;;;7.30;6.63;;;36.20;50.10;;;;;;4991726;28;20479;-87
2022/09/05 09:28:51;;;;;;;7.33;6.83;;;36.40;49.30;;;;;;4987504;28;20524;-87
2022/09/05 09:31:33;;;;;;;7.43;6.93;;;35.40;49.40;;;;;;4961592;28;21211;-87
2022/09/05 09:34:16;;;;;;;8.80;8.40;;;35.30;49.90;;;;;;4983063;28;20493;-87
2022/09/05 09:37:13;;;;;;;8.67;8.07;;;34.10;51.80;;;;;;4979714;28;20537;-87
2022/09/05 09:39:57;;;;;;;8.07;7.60;;;34.00;52.30;;;;;;4981261;28;20442;-87
2022/09/05 09:43:00;;;;;;;8.13;7.60;;;35.20;51.80;;;;;;4980041;28;20488;-87
2022/09/05 09:45:52;;;;;;;9.57;8.23;;;36.20;49.80;;;;;;4958389;28;20463;-88
2022/09/05 09:48:55;;;;;;;8.83;8.13;;;36.50;50.00;;;;;;4980957;28;20437;-87
2022/09/05 09:51:28;;;;;;;8.87;8.40;;;36.50;52.20;;;;;;4983357;28;20455;-87
2022/09/05 09:54:11;;;;;;;11.07;10.23;;;36.70;50.50;;;;;;4981495;28;20459;-87
2022/09/05 09:57:21;;;;;;;12.57;11.87;;;37.00;48.20;;;;;;4984766;28;21121;-87
2022/09/05 10:00:10;;;;;;;10.67;10.07;;;37.70;47.60;;;;;;4944272;28;21040;-87
2022/09/05 10:03:02;;;;;;;10.77;9.97;;;38.10;46.80;;;;;;4967811;28;20454;-86
2022/09/05 10:05:53;;;;;;;13.27;12.57;;;38.40;45.60;;;;;;4984406;28;21189;-88
2022/09/05 10:08:43;;;;;;;11.73;11.07;;;37.60;46.00;;;;;;4976360;28;20443;-87
2022/09/05 10:11:23;;;;;;;11.97;11.37;;;36.70;46.90;;;;;;4976570;28;20472;-87
2022/09/05 10:14:19;;;;;;;10.37;9.87;;;36.70;47.70;;;;;;4987400;28;20449;-86
2022/09/05 10:16:48;;;;;;;10.17;9.40;;;35.10;49.50;;;;;;4986413;28;20457;-87
2022/09/05 10:19:28;;;;;;;9.33;8.93;;;34.00;50.20;;;;;;4960993;28;20444;-87
2022/09/05 10:22:21;;;;;;;8.53;7.80;;;33.10;51.20;;;;;;4958174;28;20456;-87
2022/09/05 10:25:02;;;;;;;7.13;6.73;;;32.30;53.20;;;;;;4983156;28;20449;-86
2022/09/05 10:28:04;;;;;;;6.80;6.23;;;31.60;54.50;;;;;;4980511;28;20454;-87
2022/09/05 10:30:53;;;;;;;6.50;6.10;;;31.30;55.20;;;;;;4963240;28;20458;-86
2022/09/05 10:33:28;;;;;;;6.37;5.83;;;30.80;56.60;;;;;;4960277;28;20435;-87
2022/09/05 10:36:21;;;;;;;5.40;5.10;;;30.80;57.40;;;;;;4966891;28;20940;-87
2022/09/05 10:39:06;;;;;;;5.60;5.20;;;30.60;57.90;;;;;;4980940;28;20442;-86
2022/09/05 10:42:03;;;;;;;5.13;4.47;;;30.60;54.70;;;;;;4983029;28;20461;-87
2022/09/05 10:44:39;;;;;;;4.23;3.93;;;30.40;55.60;;;;;;4983368;28;20445;-87
2022/09/05 10:47:34;;;;;;;5.53;4.30;;;29.80;53.10;;;;;;4956519;28;20473;-87
2022/09/05 10:50:05;;;;;;;5.17;4.27;;;29.40;54.30;;;;;;4978568;28;20469;-86
2022/09/05 10:52:54;;;;;;;5.40;4.90;;;29.80;55.60;;;;;;4984847;28;20520;-87
2022/09/05 10:55:32;;;;;;;5.47;4.27;;;30.00;56.00;;;;;;4987289;28;20445;-87
2022/09/05 10:58:31;;;;;;;4.47;4.17;;;29.90;57.20;;;;;;4992979;28;20457;-87
2022/09/05 11:01:08;;;;;;;4.80;4.40;;;30.30;56.00;;;;;;5014724;23;20459;-86
2022/09/05 11:03:51;;;;;;;3.97;3.77;;;30.30;56.40;;;;;;4992137;28;20473;-88
2022/09/05 11:06:22;;;;;;;4.90;4.47;;;30.40;52.50;;;;;;4996886;28;20515;-86
2022/09/05 11:09:22;;;;;;;5.40;4.90;;;30.60;52.30;;;;;;4993650;28;20462;-86
2022/09/05 11:12:02;;;;;;;5.47;5.10;;;30.80;53.50;;;;;;4986207;28;20491;-87
2022/09/05 11:14:49;;;;;;;4.80;4.37;;;30.80;54.20;;;;;;4982275;28;20985;-87
2022/09/05 11:17:15;;;;;;;4.37;4.10;;;;;;;;;;4984524;28;20439;-85
2022/09/05 11:19:50;;;;;;;5.30;4.80;;;31.50;51.90;;;;;;4963807;28;20446;-87
2022/09/05 11:22:16;;;;;;;5.60;5.17;;;31.50;52.40;;;;;;4983432;28;20482;-88
2022/09/05 11:24:48;;;;;;;5.10;4.60;;;31.40;53.20;;;;;;4980211;28;20443;-86
2022/09/05 11:27:21;;;;;;;4.87;4.40;;;30.90;55.10;;;;;;4963633;28;20222;-85
2022/09/05 11:29:51;;;;;;;5.73;5.23;;;29.80;55.70;;;;;;4976042;28;20449;-89
2022/09/05 11:32:36;;;;;;;4.63;4.23;;;29.60;56.00;;;;;;4964483;28;20454;-85
2022/09/05 11:35:22;;;;;;;5.03;3.70;;;30.20;55.60;;;;;;4977496;28;21136;-86
2022/09/05 11:38:10;;;;;;;4.07;3.67;;;30.10;54.80;;;;;;4977190;28;20950;-86
2022/09/05 11:40:52;;;;;;;3.80;3.50;;;30.20;55.60;;;;;;4961280;28;20451;-86
2022/09/05 11:43:27;;;;;;;4.63;3.67;;;29.60;56.80;;;;;;4959783;28;20442;-86
2022/09/05 11:46:22;;;;;;;4.10;3.80;;;29.60;57.40;;;;;;4961742;28;20468;-87
2022/09/05 11:49:12;;;;;;;3.70;3.40;;;29.10;55.00;;;;;;4965552;28;20441;-86
2022/09/05 11:52:02;;;;;;;5.60;3.83;;;29.10;53.80;;;;;;4963986;28;20456;-88
2022/09/05 11:55:18;;;;;;;5.73;3.73;;;29.40;58.00;;;;;;4962553;28;20457;-87
2022/09/05 11:58:02;;;;;;;3.90;2.93;;;29.40;58.20;;;;;;4950876;28;20462;-85
2022/09/05 12:00:39;;;;;;;4.33;3.23;;;29.40;57.90;;;;;;4968355;28;20448;-86
2022/09/05 12:03:40;;;;;;;3.53;3.30;;;29.40;59.50;;;;;;4966156;28;20480;-88
2022/09/05 12:06:28;;;;;;;3.30;3.00;;;29.40;57.60;;;;;;4966145;28;20473;-86
2022/09/05 12:09:19;;;;;;;4.10;3.30;;;28.50;58.70;;;;;;5004778;28;20500;-83
2022/09/05 12:12:06;;;;;;;3.87;3.40;;;28.60;59.30;;;;;;4987433;28;20492;-84
2022/09/05 12:15:00;;;;;;;3.33;3.03;;;28.80;58.50;;;;;;4983122;28;20442;-86
2022/09/05 12:17:53;;;;;;;3.03;2.83;;;28.80;58.60;;;;;;4981552;28;20536;-85
2022/09/05 12:20:36;;;;;;;3.60;3.10;;;28.00;58.00;;;;;;4970276;28;20437;-86
2022/09/05 12:23:16;;;;;;;3.03;2.83;;;28.00;58.40;;;;;;4985286;28;20457;-86
2022/09/05 12:25:49;;;;;;;4.67;3.33;;;27.90;60.20;;;;;;4967460;28;20470;-86
2022/09/05 12:28:37;;;;;;;3.03;2.73;;;28.00;60.40;;;;;;4971212;28;20442;-84
2022/09/05 12:31:44;;;;;;;3.83;3.23;;;27.90;61.10;;;;;;4958576;28;21034;-85
2022/09/05 12:34:32;;;;;;;5.20;2.80;;;28.60;57.60;;;;;;4881523;29;20459;-87
2022/09/05 12:37:02;;;;;;;4.10;3.33;;;28.60;58.10;;;;;;4864057;29;20459;-87
2022/09/05 12:39:36;;;;;;;4.63;3.50;;;29.10;58.30;;;;;;4925635;28;20450;-86
2022/09/05 12:42:17;;;;;;;6.20;3.60;;;29.40;56.60;;;;;;4976364;28;20698;-87
2022/09/05 12:45:17;;;;;;;6.30;3.73;;;29.50;56.40;;;;;;4975519;28;20442;-85
2022/09/05 12:48:18;;;;;;;4.37;3.47;;;29.60;57.00;;;;;;4973245;28;20463;-86
2022/09/05 12:51:03;;;;;;;3.27;3.07;;;29.80;56.90;;;;;;4976278;28;20428;-85
2022/09/05 12:53:50;;;;;;;6.20;3.60;;;29.70;57.20;;;;;;4963152;28;20438;-88
2022/09/05 12:56:40;;;;;;;3.70;3.40;;;29.40;57.10;;;;;;4964234;28;20485;-83
2022/09/05 12:59:23;;;;;;;6.73;4.90;;;29.40;57.60;;;;;;4960366;28;20465;-83
2022/09/05 13:02:02;;;;;;;3.60;3.27;;;29.50;56.60;;;;;;4966906;28;21074;-86
2022/09/05 13:04:36;;;;;;;4.77;4.00;;;29.30;56.70;;;;;;4963998;28;20478;-88
2022/09/05 13:07:09;;;;;;;5.27;4.20;;;29.30;57.20;;;;;;4979183;28;20471;-87
2022/09/05 13:09:58;;;;;;;3.43;3.23;;;29.00;57.50;;;;;;4957170;28;20443;-84
2022/09/05 13:12:29;;;;;;;6.20;4.10;;;29.10;57.20;;;;;;4965168;28;20457;-85
2022/09/05 13:15:04;;;;;;;6.37;3.30;;;29.50;57.40;;;;;;4965242;28;20823;-86
2022/09/05 13:17:45;;;;;;;3.60;3.30;;;29.60;54.50;;;;;;4971310;28;20458;-85
2022/09/05 13:20:14;;;;;;;3.77;3.37;;;29.50;55.70;;;;;;4977874;28;20441;-86
2022/09/05 13:22:42;;;;;;;4.10;3.80;;;29.50;55.90;;;;;;4965189;28;20977;-86
2022/09/05 13:25:16;;;;;;;7.00;6.23;;;29.90;56.10;;;;;;4981830;28;20438;-85
2022/09/05 13:27:55;;;;;;;4.33;3.93;;;30.20;55.90;;;;;;4970495;28;20437;-83
2022/09/05 13:30:23;;;;;;;9.40;3.90;;;30.50;55.60;;;;;;5007806;28;20442;-88
2022/09/05 13:32:55;;;;;;;4.63;4.33;;;30.20;53.40;;;;;;4983661;28;20463;-86
2022/09/05 13:35:41;;;;;;;6.37;4.43;;;30.20;54.10;;;;;;4980584;28;20469;-87
2022/09/05 13:38:15;;;;;;;4.63;4.33;;;30.00;53.50;;;;;;4982814;28;20461;-88
2022/09/05 13:40:49;;;;;;;4.20;3.97;;;30.20;53.80;;;;;;4967580;28;20509;-87
2022/09/05 13:43:20;;;;;;;4.03;3.70;;;30.20;53.60;;;;;;4982134;28;20453;-87
2022/09/05 13:46:09;;;;;;;5.13;4.47;;;30.20;54.10;;;;;;4960645;28;20483;-85
2022/09/05 13:48:59;;;;;;;4.03;3.73;;;29.80;54.30;;;;;;4982057;28;21330;-86
2022/09/05 13:51:35;;;;;;;4.13;3.83;;;30.10;54.50;;;;;;4984387;28;20458;-85
2022/09/05 13:54:13;;;;;;;4.57;4.27;;;32.00;53.90;;;;;;4975125;28;20547;-86
2022/09/05 13:56:52;;;;;;;4.40;3.83;;;30.70;53.20;;;;;;4960572;28;20839;-86
2022/09/05 13:59:22;;;;;;;4.03;3.73;;;30.70;53.70;;;;;;4978500;28;20484;-86
2022/09/05 14:02:25;;;;;;;8.07;4.30;;;30.80;51.90;;;;;;4964061;28;20487;-86
2022/09/05 14:05:00;;;;;;;4.33;4.03;;;30.80;52.50;;;;;;4978746;28;20525;-84
2022/09/05 14:07:58;;;;;;;4.60;4.30;;;30.60;52.50;;;;;;4964252;28;20469;-85
2022/09/05 14:10:52;;;;;;;4.80;4.50;;;30.30;51.50;;;;;;4982576;28;20437;-86